Time;durP1;ratioP1;P1;durP2;ratioP2;P2;SDS_P1;SDS_P2;PMS_P1;PMS_P2;Temp;Humidity;BMP_temperature;BMP_pressure;BME280_temperature;BME280_humidity;BME280_pressure;Samples;Min_cycle;Max_cycle;Signal;HPM_P1;HPM_P2
2022/06/21 00:00:34;;;;;;;3.03;1.48;;;;;;;16.89;56.45;100572.25;4113371;28;20047;-64
2022/06/21 00:02:37;;;;;;;2.72;1.88;;;;;;;16.88;56.92;100564.38;4117961;28;20038;-65
2022/06/21 00:04:41;;;;;;;5.90;1.83;;;;;;;16.80;57.96;100567.03;4133747;28;20065;-65
2022/06/21 00:06:44;;;;;;;2.67;1.67;;;;;;;16.81;57.50;100570.56;4119952;28;20117;-65
2022/06/21 00:08:48;;;;;;;5.88;2.65;;;;;;;16.82;57.36;100569.66;4130389;28;20030;-65
2022/06/21 00:10:52;;;;;;;5.85;2.00;;;;;;;16.75;57.16;100572.34;4130497;28;20125;-65
2022/06/21 00:12:55;;;;;;;5.07;2.33;;;;;;;16.71;57.02;100573.25;4130133;28;20053;-65
2022/06/21 00:14:58;;;;;;;7.07;2.33;;;;;;;16.64;57.66;100571.56;4129486;28;20507;-65
2022/06/21 00:17:01;;;;;;;3.33;1.65;;;;;;;16.65;57.68;100573.31;4138195;28;20057;-64
2022/06/21 00:19:06;;;;;;;5.47;2.17;;;;;;;16.67;56.76;100578.56;4130178;28;20042;-65
2022/06/21 00:21:13;;;;;;;4.07;2.20;;;;;;;16.68;57.00;100578.53;4129547;28;20472;-65
2022/06/21 00:23:19;;;;;;;5.43;2.13;;;;;;;16.65;57.73;100580.34;4096643;28;20051;-65
2022/06/21 00:25:27;;;;;;;5.55;1.92;;;;;;;16.60;57.81;100574.25;4126856;28;20412;-64
2022/06/21 00:27:31;;;;;;;7.38;2.60;;;;;;;16.59;57.92;100573.38;4129627;28;20130;-65
2022/06/21 00:29:34;;;;;;;;;;;;;;;16.39;58.53;100566.53;4103084;28;20043;-64
2022/06/21 00:31:41;;;;;;;4.03;1.83;;;;;;;16.46;58.78;100569.13;4129954;28;19929;-65
2022/06/21 00:33:44;;;;;;;3.70;1.75;;;;;;;16.45;59.33;100575.25;4129830;28;20049;-64
2022/06/21 00:35:50;;;;;;;4.80;2.08;;;;;;;16.40;59.10;100563.03;4115970;28;20060;-66
2022/06/21 00:37:54;;;;;;;4.10;2.03;;;;;;;16.33;59.91;100569.22;4127318;28;20133;-65
2022/06/21 00:39:57;;;;;;;6.63;2.35;;;;;;;16.33;59.98;100584.94;4128679;28;20038;-64
2022/06/21 00:42:14;;;;;;;4.20;1.92;;;;;;;16.36;59.50;100581.44;4129188;28;20524;-64
2022/06/21 00:44:24;;;;;;;3.70;1.90;;;;;;;16.32;60.37;100591.06;4122194;28;20570;-64
2022/06/21 00:46:36;;;;;;;4.90;2.50;;;;;;;16.35;60.14;100585.81;4111809;28;20471;-64
2022/06/21 00:48:44;;;;;;;9.00;2.47;;;;;;;16.32;61.16;100588.44;4113083;28;20066;-65
2022/06/21 00:50:52;;;;;;;3.53;2.03;;;;;;;16.31;60.89;100591.09;4104593;28;20057;-64
2022/06/21 00:53:00;;;;;;;4.68;2.50;;;;;;;16.32;61.46;100591.06;4127751;28;20405;-64
2022/06/21 00:55:11;;;;;;;6.70;2.53;;;;;;;16.33;61.38;100582.31;4130331;28;20508;-64
2022/06/21 00:57:18;;;;;;;6.32;2.75;;;;;;;16.33;61.52;100568.34;4129792;28;20497;-64
2022/06/21 00:59:23;;;;;;;7.25;2.70;;;;;;;16.35;61.68;100583.19;4130028;28;20058;-64
2022/06/21 01:01:30;;;;;;;4.78;2.25;;;;;;;16.30;61.81;100574.47;4130264;28;20478;-64
2022/06/21 01:03:36;;;;;;;2.97;1.90;;;;;;;16.26;61.70;100570.13;4129979;28;20493;-64
2022/06/21 01:05:44;;;;;;;6.18;2.72;;;;;;;16.29;62.33;100574.50;4126141;28;20129;-64
2022/06/21 01:07:48;;;;;;;4.63;2.35;;;;;;;16.33;61.93;100576.22;4129337;28;20133;-64
2022/06/21 01:09:56;;;;;;;6.70;2.45;;;;;;;16.35;62.37;100570.09;4128060;28;20133;-64
2022/06/21 01:12:03;;;;;;;6.82;2.30;;;;;;;16.33;61.95;100568.34;4130593;28;20042;-64
2022/06/21 01:14:09;;;;;;;3.10;2.22;;;;;;;16.24;62.41;100556.16;4113944;28;20043;-64
2022/06/21 01:16:13;;;;;;;6.95;2.58;;;;;;;16.29;62.39;100550.88;4130258;28;20581;-65
2022/06/21 01:18:22;;;;;;;8.05;2.75;;;;;;;16.28;62.26;100550.03;4117751;28;20039;-64
2022/06/21 01:20:27;;;;;;;5.70;2.78;;;;;;;16.25;63.11;100557.88;4128023;28;20045;-64
2022/06/21 01:22:37;;;;;;;8.43;3.15;;;;;;;16.26;63.33;100549.16;4127549;28;20050;-64
2022/06/21 01:24:50;;;;;;;6.65;2.38;;;;;;;16.15;63.98;100549.25;4113495;28;20552;-64
2022/06/21 01:26:57;;;;;;;5.80;2.95;;;;;;;16.09;64.12;100561.50;4114767;28;20050;-64
2022/06/21 01:29:02;;;;;;;8.13;3.33;;;;;;;16.10;63.70;100558.88;4131928;28;20383;-64
2022/06/21 01:31:06;;;;;;;6.47;3.17;;;;;;;16.09;64.34;100559.78;4129040;28;20080;-64
2022/06/21 01:33:12;;;;;;;;;;;;;;;15.90;64.52;100561.63;4113837;28;20430;-64
2022/06/21 01:35:29;;;;;;;7.72;3.00;;;;;;;16.01;64.05;100559.81;4132045;28;19921;-64
2022/06/21 01:37:31;;;;;;;9.20;3.22;;;;;;;16.07;64.25;100555.41;4126885;28;20042;-64
2022/06/21 01:39:41;;;;;;;7.38;3.17;;;;;;;16.09;64.02;100549.28;4121300;28;20037;-64
2022/06/21 01:41:48;;;;;;;7.93;2.88;;;;;;;16.07;64.15;100558.91;4128067;28;20045;-64
2022/06/21 01:43:55;;;;;;;6.93;2.72;;;;;;;16.08;64.12;100551.91;4132814;28;20489;-64
2022/06/21 01:46:03;;;;;;;6.40;2.92;;;;;;;16.08;64.24;100549.28;4114595;28;20051;-64
2022/06/21 01:48:12;;;;;;;7.10;3.22;;;;;;;16.05;64.93;100555.44;4139991;28;20038;-64
2022/06/21 01:50:16;;;;;;;7.32;3.35;;;;;;;16.04;65.08;100558.94;4132347;28;20058;-64
2022/06/21 01:52:22;;;;;;;5.93;3.20;;;;;;;16.10;65.05;100552.78;4129637;28;20057;-64
2022/06/21 01:54:33;;;;;;;7.07;3.10;;;;;;;16.08;64.55;100542.28;4129887;28;20051;-64
2022/06/21 01:56:40;;;;;;;6.65;2.90;;;;;;;16.00;64.84;100544.09;4132810;28;20057;-64
2022/06/21 01:58:51;;;;;;;4.47;2.75;;;;;;;15.98;64.66;100544.09;4132311;28;20058;-64
2022/06/21 02:00:59;;;;;;;4.15;2.88;;;;;;;16.01;65.25;100538.84;4131484;28;20038;-63
2022/06/21 02:03:08;;;;;;;6.43;2.90;;;;;;;16.05;64.77;100543.19;4112139;28;20521;-64
2022/06/21 02:05:15;;;;;;;6.35;2.88;;;;;;;16.07;65.16;100542.31;4123297;28;20069;-64
2022/06/21 02:07:23;;;;;;;5.15;2.72;;;;;;;15.99;64.88;100537.97;4131683;28;20503;-64
2022/06/21 02:09:32;;;;;;;5.28;2.67;;;;;;;15.92;64.73;100531.03;4129596;28;20493;-64
2022/06/21 02:11:43;;;;;;;10.10;3.30;;;;;;;15.97;64.17;100526.63;4126897;28;20030;-64
2022/06/21 02:14:28;;;;;;;4.57;3.03;;;;;;;15.94;63.64;100526.66;4132595;28;20038;-64
2022/06/21 02:16:21;;;;;;;7.95;3.45;;;;;;;15.89;63.87;100523.19;4137457;28;20093;-64
2022/06/21 02:18:28;;;;;;;5.10;3.03;;;;;;;15.91;63.48;100528.44;4125087;28;20121;-64
2022/06/21 02:20:38;;;;;;;7.88;2.92;;;;;;;15.86;63.64;100523.22;4132447;28;20500;-64
2022/06/21 02:22:42;;;;;;;5.63;3.15;;;;;;;15.77;63.13;100523.22;4130574;28;20050;-64
2022/06/21 02:24:45;;;;;;;4.88;2.78;;;;;;;15.76;63.41;100521.50;4136169;28;20045;-64
2022/06/21 02:26:48;;;;;;;5.47;2.58;;;;;;;15.76;63.21;100524.13;4123721;28;20046;-64
2022/06/21 02:28:51;;;;;;;6.32;2.90;;;;;;;15.77;63.00;100513.63;4130470;28;20038;-64
2022/06/21 02:30:55;;;;;;;6.25;2.65;;;;;;;15.80;62.47;100510.13;4131218;28;20352;-64
2022/06/21 02:33:02;;;;;;;8.23;3.05;;;;;;;15.79;62.65;100516.28;4128944;28;20057;-64
2022/06/21 02:35:09;;;;;;;5.43;2.70;;;;;;;15.78;62.37;100509.25;4131699;28;20494;-64
2022/06/21 02:37:15;;;;;;;9.43;3.30;;;;;;;15.68;62.82;100513.66;4114860;28;20043;-64
2022/06/21 02:39:22;;;;;;;9.63;3.03;;;;;;;15.67;62.43;100509.34;4130241;28;20564;-64
2022/06/21 02:41:30;;;;;;;5.38;2.58;;;;;;;15.67;62.08;100517.19;4131741;28;20486;-64
2022/06/21 02:43:39;;;;;;;7.05;2.75;;;;;;;15.71;62.35;100514.53;4125843;28;20379;-64
2022/06/21 02:45:48;;;;;;;4.00;2.47;;;;;;;15.64;61.73;100511.97;4131515;28;20050;-64
2022/06/21 02:47:54;;;;;;;5.32;2.97;;;;;;;15.65;61.85;100513.69;4128099;28;20069;-64
2022/06/21 02:50:03;;;;;;;5.72;3.00;;;;;;;15.65;61.91;100509.34;4130604;28;20026;-64
2022/06/21 02:52:12;;;;;;;4.95;2.65;;;;;;;15.61;61.79;100507.63;4129769;28;20104;-64
2022/06/21 02:54:21;;;;;;;5.57;2.92;;;;;;;15.58;62.77;100512.88;4113573;28;20434;-65
2022/06/21 02:56:28;;;;;;;7.25;2.97;;;;;;;15.57;62.22;100507.66;4114118;28;20137;-64
2022/06/21 02:58:36;;;;;;;6.55;2.80;;;;;;;15.56;62.26;100504.13;4115781;28;20043;-64
2022/06/21 03:00:39;;;;;;;4.90;2.50;;;;;;;15.56;62.27;100504.13;4131442;28;20130;-64
2022/06/21 03:02:43;;;;;;;7.13;2.90;;;;;;;15.60;62.52;100505.88;4130801;28;20070;-64
2022/06/21 03:04:51;;;;;;;9.95;3.50;;;;;;;15.56;63.38;100504.13;4131665;28;20031;-64
2022/06/21 03:06:55;;;;;;;5.97;3.00;;;;;;;15.53;63.13;100506.78;4135255;28;20050;-64
2022/06/21 03:09:01;;;;;;;5.20;2.45;;;;;;;15.48;62.80;100505.94;4114734;28;20046;-64
2022/06/21 03:11:06;;;;;;;6.60;2.78;;;;;;;15.52;63.54;100495.44;4130067;28;20069;-64
2022/06/21 03:13:10;;;;;;;;;;;;;;;15.41;63.03;100499.84;4131197;28;20046;-64
2022/06/21 03:15:14;;;;;;;5.65;2.90;;;;;;;15.49;62.43;100491.94;4130604;28;19929;-64
2022/06/21 03:17:18;;;;;;;4.00;2.75;;;;;;;15.51;62.11;100490.19;4123695;28;20467;-64
2022/06/21 03:19:25;;;;;;;6.82;3.17;;;;;;;15.46;62.18;100476.25;4130053;28;20562;-64
2022/06/21 03:21:31;;;;;;;6.45;2.80;;;;;;;15.44;62.02;100478.00;4131007;28;20049;-64
2022/06/21 03:23:35;;;;;;;10.30;3.30;;;;;;;15.44;62.89;100457.06;4131411;28;20057;-64
2022/06/21 03:25:44;;;;;;;6.07;3.30;;;;;;;15.43;63.15;100460.53;4110426;28;20113;-63
2022/06/21 03:27:53;;;;;;;4.82;3.30;;;;;;;15.42;62.50;100464.94;4130219;28;20045;-63
2022/06/21 03:29:57;;;;;;;7.90;3.60;;;;;;;15.38;63.56;100467.56;4143225;28;20044;-63
2022/06/21 03:32:04;;;;;;;7.72;3.28;;;;;;;15.41;63.86;100470.19;4129400;28;20046;-63
2022/06/21 03:34:10;;;;;;;7.53;2.80;;;;;;;15.43;63.62;100463.16;4130129;28;20053;-63
2022/06/21 03:36:17;;;;;;;6.30;3.10;;;;;;;15.45;63.71;100458.78;4145780;28;20084;-63
2022/06/21 03:38:20;;;;;;;7.32;2.95;;;;;;;15.49;62.78;100457.88;4114643;28;20133;-63
2022/06/21 03:42:51;;;;;;;5.50;3.00;;;;;;;15.56;63.19;100451.72;4129638;28;20137;-63
2022/06/21 03:44:59;;;;;;;9.88;3.78;;;;;;;15.59;63.13;100449.09;4131063;28;20043;-63
2022/06/21 03:47:06;;;;;;;7.82;3.58;;;;;;;15.60;62.77;100445.59;4130653;28;20129;-63
2022/06/21 03:49:18;;;;;;;6.13;3.15;;;;;;;15.66;62.27;100450.78;4129651;28;20137;-63
2022/06/21 03:51:27;;;;;;;4.35;2.20;;;;;;;15.71;61.63;100441.16;4130716;28;20089;-63
2022/06/21 03:53:34;;;;;;;8.43;2.70;;;;;;;15.82;62.30;100441.09;4118332;28;20414;-63
2022/06/21 03:55:50;;;;;;;7.78;3.08;;;;;;;15.84;62.61;100444.59;4112926;28;20073;-63
2022/06/21 03:57:59;;;;;;;7.05;2.67;;;;;;;15.80;62.06;100441.97;4129721;28;20133;-64
2022/06/21 04:00:06;;;;;;;4.50;2.60;;;;;;;15.81;62.40;100439.38;4130084;28;20042;-64
2022/06/21 04:02:14;;;;;;;4.22;2.40;;;;;;;15.85;62.37;100443.69;4129136;28;20126;-65
2022/06/21 04:04:25;;;;;;;6.35;2.63;;;;;;;15.86;62.53;100439.34;4123275;28;20088;-64
2022/06/21 04:06:34;;;;;;;5.22;2.40;;;;;;;16.47;64.11;100442.25;4118691;28;20051;-65
2022/06/21 04:08:43;;;;;;;4.93;2.40;;;;;;;17.24;60.36;100437.00;4129275;28;20046;-65
2022/06/21 04:10:52;;;;;;;6.47;2.15;;;;;;;17.75;58.80;100435.38;4130163;28;20034;-65
2022/06/21 04:12:58;;;;;;;5.00;1.80;;;;;;;18.09;57.26;100433.09;4131058;28;20046;-65
2022/06/21 04:15:08;;;;;;;4.85;2.10;;;;;;;18.29;55.87;100424.84;4130166;28;20050;-66
2022/06/21 04:17:18;;;;;;;4.90;2.08;;;;;;;18.40;55.24;100427.28;4129968;28;20061;-66
2022/06/21 04:19:28;;;;;;;5.00;1.88;;;;;;;18.50;54.88;100428.00;4126401;28;20057;-66
2022/06/21 04:21:38;;;;;;;6.38;1.65;;;;;;;18.51;54.45;100431.47;4129612;28;20129;-66
2022/06/21 04:23:45;;;;;;;4.38;2.05;;;;;;;18.49;54.33;100437.63;4112711;28;20090;-66
2022/06/21 04:25:56;;;;;;;5.20;1.63;;;;;;;18.60;53.39;100441.81;4130965;28;20057;-66
2022/06/21 04:28:03;;;;;;;3.15;2.08;;;;;;;18.65;53.37;100432.94;4128676;28;20050;-66
2022/06/21 04:30:11;;;;;;;4.13;1.85;;;;;;;18.75;52.86;100432.75;4131842;28;20053;-66
2022/06/21 04:32:18;;;;;;;2.28;1.38;;;;;;;18.78;52.17;100427.44;4130138;28;20034;-66
2022/06/21 04:34:27;;;;;;;2.08;1.50;;;;;;;18.88;51.91;100426.38;4129597;28;20375;-66
2022/06/21 04:36:35;;;;;;;1.60;1.30;;;;;;;18.87;51.74;100429.06;4129396;28;20038;-63
2022/06/21 04:38:42;;;;;;;4.75;1.70;;;;;;;18.59;51.25;100445.38;4122855;28;20620;-64
2022/06/21 04:40:49;;;;;;;3.60;1.42;;;;;;;18.16;52.18;100443.50;4128321;28;20045;-64
2022/06/21 04:43:01;;;;;;;5.35;1.77;;;;;;;17.90;52.99;100448.31;4130038;28;20386;-64
2022/06/21 04:45:11;;;;;;;7.85;2.42;;;;;;;17.80;51.38;100438.81;4130118;28;20049;-64
2022/06/21 04:47:20;;;;;;;4.72;2.45;;;;;;;17.57;52.08;100434.78;4125889;28;20130;-64
2022/06/21 04:49:29;;;;;;;3.47;2.10;;;;;;;17.46;51.96;100420.91;4107987;28;20038;-64
2022/06/21 04:51:36;;;;;;;5.30;2.47;;;;;;;17.33;52.21;100422.84;4132164;28;20035;-64
2022/06/21 04:53:48;;;;;;;10.32;2.80;;;;;;;17.36;52.26;100432.44;4118713;28;20412;-64
2022/06/21 04:56:09;;;;;;;4.40;2.25;;;;;;;17.28;51.44;100432.56;4118366;28;20485;-64
2022/06/21 04:58:13;;;;;;;5.90;2.25;;;;;;;17.28;51.73;100445.72;4131163;28;20420;-65
2022/06/21 05:00:18;;;;;;;4.53;2.25;;;;;;;17.17;52.02;100439.72;4131330;28;20133;-64
2022/06/21 05:02:24;;;;;;;4.22;2.55;;;;;;;17.23;51.69;100437.00;4113522;28;20038;-64
2022/06/21 05:04:32;;;;;;;4.93;2.40;;;;;;;17.22;52.03;100427.41;4130192;28;20092;-64
2022/06/21 05:06:36;;;;;;;5.43;2.53;;;;;;;17.20;52.08;100427.44;4131038;28;20042;-64
2022/06/21 05:08:40;;;;;;;6.88;2.40;;;;;;;17.10;52.58;100436.31;4132913;28;20048;-64
2022/06/21 05:10:47;;;;;;;4.80;2.33;;;;;;;17.20;52.23;100423.91;4135224;28;20034;-64
2022/06/21 05:12:52;;;;;;;5.15;2.67;;;;;;;17.22;51.90;100424.78;4133602;28;20045;-65
2022/06/21 05:15:01;;;;;;;8.43;2.47;;;;;;;17.17;52.00;100429.22;4134327;28;20053;-64
2022/06/21 05:17:07;;;;;;;4.50;2.30;;;;;;;17.12;52.47;100452.06;4134075;28;20093;-64
2022/06/21 05:19:19;;;;;;;4.63;3.13;;;;;;;17.20;52.09;100453.69;4133830;28;20108;-64
2022/06/21 05:21:31;;;;;;;6.53;2.65;;;;;;;17.31;51.62;100437.78;4133875;28;20046;-64
2022/06/21 05:23:34;;;;;;;9.68;2.45;;;;;;;17.31;51.83;100432.53;4133756;28;20505;-64
2022/06/21 05:25:41;;;;;;;8.95;2.97;;;;;;;17.39;51.49;100424.53;4133970;28;20571;-64
2022/06/21 05:27:49;;;;;;;6.03;2.42;;;;;;;17.26;52.22;100439.63;4133999;28;20046;-64
2022/06/21 05:30:03;;;;;;;6.95;2.75;;;;;;;17.35;51.66;100444.72;4132744;28;20054;-64
2022/06/21 05:32:17;;;;;;;4.47;2.72;;;;;;;17.40;51.87;100439.41;4132456;28;20036;-64
2022/06/21 05:34:24;;;;;;;7.28;2.80;;;;;;;17.46;51.43;100441.94;4107736;28;20436;-64
2022/06/21 05:36:31;;;;;;;5.65;2.80;;;;;;;17.44;51.38;100439.34;4133797;28;20038;-64
2022/06/21 05:38:36;;;;;;;5.38;2.55;;;;;;;17.40;51.91;100442.91;4133714;28;20046;-64
2022/06/21 05:40:46;;;;;;;5.57;2.80;;;;;;;17.47;51.62;100440.19;4133741;28;20066;-64
2022/06/21 05:42:49;;;;;;;6.95;2.38;;;;;;;17.52;52.25;100443.63;4133365;28;20165;-64
2022/06/21 05:44:55;;;;;;;5.18;2.75;;;;;;;17.73;50.89;100432.78;4132613;28;20034;-64
2022/06/21 05:47:05;;;;;;;7.53;2.60;;;;;;;17.68;50.96;100431.97;4133504;28;20476;-64
2022/06/21 05:49:20;;;;;;;5.53;2.50;;;;;;;17.73;50.65;100430.16;4133582;28;20218;-64
2022/06/21 05:51:27;;;;;;;5.95;2.97;;;;;;;17.71;51.08;100431.94;4133489;28;20046;-64
2022/06/21 05:53:33;;;;;;;7.80;3.03;;;;;;;17.89;51.03;100430.78;4133280;28;20042;-64
2022/06/21 05:55:40;;;;;;;8.15;2.60;;;;;;;17.95;51.62;100429.84;4115275;28;20093;-68
2022/06/21 05:57:45;;;;;;;7.82;2.70;;;;;;;18.14;51.29;100428.63;4124085;28;20049;-67
2022/06/21 05:59:48;;;;;;;6.30;2.42;;;;;;;18.23;49.52;100435.47;4133326;28;20064;-66
2022/06/21 06:01:55;;;;;;;6.30;2.22;;;;;;;18.27;49.63;100431.03;4115506;28;20031;-67
2022/06/21 06:04:06;;;;;;;5.93;1.90;;;;;;;18.35;50.42;100431.75;4132588;28;20038;-66
2022/06/21 06:06:12;;;;;;;9.40;3.28;;;;;;;18.66;49.51;100429.41;4133135;28;20046;-67
2022/06/21 06:08:20;;;;;;;4.78;2.67;;;;;;;18.78;49.23;100432.72;4133208;28;20044;-67
2022/06/21 06:10:25;;;;;;;5.32;2.53;;;;;;;18.73;48.70;100439.81;4135166;28;20054;-69
2022/06/21 06:12:31;;;;;;;4.00;2.17;;;;;;;18.76;49.33;100440.66;4132546;28;20038;-69
2022/06/21 06:14:40;;;;;;;5.68;2.92;;;;;;;19.03;47.66;100435.72;4132383;28;20496;-67
2022/06/21 06:16:46;;;;;;;6.35;2.25;;;;;;;18.87;48.33;100436.97;4139914;28;20046;-68
2022/06/21 06:18:57;;;;;;;4.57;2.30;;;;;;;18.64;48.68;100435.59;4132419;28;20133;-69
2022/06/21 06:21:06;;;;;;;5.50;2.30;;;;;;;18.65;49.51;100447.88;4133347;28;20049;-69
2022/06/21 06:23:24;;;;;;;7.25;2.38;;;;;;;18.91;49.23;100449.13;4132647;28;20034;-69
2022/06/21 06:25:33;;;;;;;6.63;2.35;;;;;;;19.18;47.10;100452.97;4131256;28;20054;-67
2022/06/21 06:27:48;;;;;;;5.97;2.15;;;;;;;19.10;46.81;100468.06;4147984;28;20050;-69
2022/06/21 06:29:52;;;;;;;3.33;1.55;;;;;;;18.90;47.96;100473.78;4119030;28;20042;-71
2022/06/21 06:32:00;;;;;;;5.63;2.47;;;;;;;19.03;48.10;100475.25;4115159;28;20532;-70
2022/06/21 06:34:12;;;;;;;9.27;3.28;;;;;;;19.13;48.08;100465.41;4131961;28;20172;-73
2022/06/21 06:36:24;;;;;;;8.18;2.60;;;;;;;19.30;48.08;100460.63;4125111;28;20039;-69
2022/06/21 06:38:32;;;;;;;4.82;1.90;;;;;;;19.46;47.07;100469.03;4134023;28;20042;-69
2022/06/21 06:40:47;;;;;;;7.93;2.28;;;;;;;19.56;46.37;100469.72;4139443;28;20045;-69
2022/06/21 06:43:02;;;;;;;5.07;2.55;;;;;;;19.64;46.08;100470.41;4132391;28;20034;-69
2022/06/21 06:45:16;;;;;;;5.38;2.35;;;;;;;19.66;45.64;100465.09;4122115;28;20299;-68
2022/06/21 06:47:29;;;;;;;4.40;1.70;;;;;;;19.40;46.71;100471.81;4125495;28;20046;-69
2022/06/21 06:49:40;;;;;;;3.78;1.92;;;;;;;19.36;46.94;100489.50;4132654;28;20050;-69
2022/06/21 06:51:59;;;;;;;6.25;2.13;;;;;;;19.50;47.01;100502.34;4113986;28;20039;-69
2022/06/21 06:54:33;;;;;;;5.90;2.17;;;;;;;19.85;45.80;100497.22;4125339;28;20173;-69
2022/06/21 06:56:52;;;;;;;5.93;1.90;;;;;;;19.82;46.13;100494.66;4132530;28;20123;-69
2022/06/21 06:59:37;;;;;;;6.38;1.90;;;;;;;19.71;47.05;100505.41;4132801;28;20524;-69
2022/06/21 07:02:25;;;;;;;4.78;1.70;;;;;;;19.84;47.36;100500.75;4132285;28;20057;-69
2022/06/21 07:04:38;;;;;;;4.53;1.95;;;;;;;19.82;46.35;100513.13;4132483;28;20390;-70
2022/06/21 07:07:26;;;;;;;5.22;2.38;;;;;;;19.82;46.20;100502.56;4138980;28;20173;-69
2022/06/21 07:09:40;;;;;;;7.88;2.60;;;;;;;19.98;45.38;100503.06;4126598;28;20042;-69
2022/06/21 07:11:54;;;;;;;10.77;3.25;;;;;;;20.07;45.27;100502.00;4131967;28;20072;-69
2022/06/21 07:13:58;;;;;;;4.75;1.90;;;;;;;20.03;45.38;100501.19;4130983;28;20133;-69
2022/06/21 07:16:07;;;;;;;13.48;2.42;;;;;;;20.09;45.70;100501.03;4131088;28;20485;-69
2022/06/21 07:18:15;;;;;;;10.50;2.45;;;;;;;20.10;45.50;100502.75;4116275;28;20042;-69
2022/06/21 07:20:23;;;;;;;22.23;6.53;;;;;;;20.16;47.37;100497.31;4123275;28;20072;-69
2022/06/21 07:22:30;;;;;;;19.27;5.10;;;;;;;20.23;47.21;100483.06;4131900;28;20291;-69
2022/06/21 07:24:33;;;;;;;13.60;3.33;;;;;;;20.35;47.00;100486.31;4114740;28;20046;-69
2022/06/21 07:26:44;;;;;;;8.98;2.83;;;;;;;20.49;45.91;100478.91;4132087;28;20129;-69
2022/06/21 07:28:50;;;;;;;5.85;2.20;;;;;;;20.61;45.58;100468.91;4114183;28;20093;-69
2022/06/21 07:30:56;;;;;;;4.80;1.77;;;;;;;20.73;44.25;100452.75;4118767;28;20038;-69
2022/06/21 07:33:05;;;;;;;10.35;2.47;;;;;;;20.83;43.08;100411.94;4130551;28;20066;-67
2022/06/21 07:35:13;;;;;;;4.97;2.33;;;;;;;20.97;42.87;100355.16;4131712;28;20034;-67
2022/06/21 07:37:19;;;;;;;11.00;1.92;;;;;;;20.81;42.58;100331.88;4131815;28;20046;-68
2022/06/21 07:39:30;;;;;;;17.35;3.20;;;;;;;20.60;42.93;100301.63;4114707;28;20057;-67
2022/06/21 07:41:41;;;;;;;5.55;2.35;;;;;;;20.67;42.30;100220.47;4113562;28;20074;-67
2022/06/21 07:43:47;;;;;;;8.45;2.13;;;;;;;20.50;41.88;100171.66;4138658;28;20133;-66
2022/06/21 07:45:53;;;;;;;6.47;2.30;;;;;;;20.20;42.29;100197.22;4131706;28;20049;-68
2022/06/21 07:48:04;;;;;;;4.00;1.60;;;;;;;19.84;43.98;100366.19;4114370;28;20422;-69
2022/06/21 07:50:12;;;;;;;8.45;2.05;;;;;;;19.71;43.90;100413.09;4131784;28;20053;-66
2022/06/21 07:52:23;;;;;;;10.13;2.25;;;;;;;20.01;42.29;100381.59;4131165;28;20046;-66
2022/06/21 07:54:32;;;;;;;3.88;1.60;;;;;;;19.93;43.05;100387.09;4139919;28;20396;-67
2022/06/21 07:56:41;;;;;;;4.60;1.60;;;;;;;19.96;42.91;100378.22;4131572;28;20096;-66
2022/06/21 07:58:48;;;;;;;5.25;1.98;;;;;;;20.29;41.23;100365.03;4131652;28;20049;-66
2022/06/21 08:08:10;;;;;;;9.30;1.95;;;;;;;20.36;42.68;100356.88;4131364;28;20516;-68
2022/06/21 08:10:21;;;;;;;8.07;1.98;;;;;;;20.46;41.69;100352.22;4114229;28;20575;-66
2022/06/21 08:12:24;;;;;;;4.05;1.80;;;;;;;20.48;42.42;100352.19;4131360;28;20116;-67
2022/06/21 08:14:33;;;;;;;6.53;1.98;;;;;;;20.66;42.68;100353.41;4131330;28;20050;-68
2022/06/21 08:16:43;;;;;;;4.53;1.52;;;;;;;20.76;42.67;100354.91;4130594;28;20137;-68
2022/06/21 08:18:51;;;;;;;2.65;1.48;;;;;;;20.84;42.12;100352.91;4131260;28;20485;-68
2022/06/21 08:20:58;;;;;;;5.63;2.42;;;;;;;20.98;42.00;100359.53;4131526;28;20073;-68
2022/06/21 08:23:08;;;;;;;5.80;1.83;;;;;;;21.01;40.72;100354.16;4131006;28;20402;-69
2022/06/21 08:25:23;;;;;;;7.15;2.00;;;;;;;21.02;40.77;100361.19;4130454;28;20039;-69
2022/06/21 08:27:35;;;;;;;7.65;1.80;;;;;;;20.94;40.42;100350.84;4122183;28;20034;-70
2022/06/21 08:29:44;;;;;;;7.40;2.10;;;;;;;20.97;39.85;100355.16;4131268;28;20060;-70
2022/06/21 08:31:55;;;;;;;3.22;1.70;;;;;;;20.88;41.07;100349.25;4131106;28;20046;-70
2022/06/21 08:34:04;;;;;;;6.75;2.28;;;;;;;20.99;41.00;100340.13;4131973;28;20393;-68
2022/06/21 08:36:10;;;;;;;7.57;2.88;;;;;;;20.98;39.98;100333.97;4130335;28;20070;-68
2022/06/21 08:38:18;;;;;;;4.68;1.45;;;;;;;20.88;40.52;100343.97;4131005;28;20050;-70
2022/06/21 08:40:40;;;;;;;11.95;2.60;;;;;;;21.01;40.63;100338.31;4113957;28;20525;-70
2022/06/21 08:43:27;;;;;;;4.63;2.05;;;;;;;21.25;39.66;100326.94;4112014;28;20066;-70
2022/06/21 08:45:42;;;;;;;6.40;1.90;;;;;;;21.30;39.91;100333.88;4118436;28;20485;-68
2022/06/21 08:48:11;;;;;;;4.00;1.52;;;;;;;21.30;40.90;100334.72;4134413;28;20418;-71
2022/06/21 08:50:33;;;;;;;3.08;1.40;;;;;;;21.37;41.24;100336.25;4134362;28;20038;-71
2022/06/21 08:53:02;;;;;;;3.85;1.75;;;;;;;21.65;39.89;100331.88;4131146;28;20107;-70
2022/06/21 08:55:16;;;;;;;5.00;1.60;;;;;;;21.76;38.67;100327.09;4116017;28;20502;-71
2022/06/21 08:57:33;;;;;;;6.20;1.92;;;;;;;22.01;36.87;100315.66;4122676;28;20137;-71
2022/06/21 08:59:46;;;;;;;2.58;1.23;;;;;;;21.84;37.49;100325.03;4124863;28;20057;-71
2022/06/21 09:02:03;;;;;;;4.47;1.92;;;;;;;21.95;36.79;100312.28;4132357;28;20624;-70
2022/06/21 09:04:25;;;;;;;2.65;1.23;;;;;;;21.97;36.82;100310.44;4134074;28;20038;-72
2022/06/21 09:06:46;;;;;;;4.75;1.83;;;;;;;22.14;35.07;100312.50;4116300;28;20074;-71
2022/06/21 09:09:08;;;;;;;2.80;1.45;;;;;;;22.22;34.76;100311.34;4130523;28;20125;-71
2022/06/21 09:11:27;;;;;;;3.78;1.50;;;;;;;22.18;35.57;100309.72;4134142;28;20038;-71
2022/06/21 09:13:52;;;;;;;3.45;1.30;;;;;;;22.26;35.15;100305.88;4133815;28;20034;-71
2022/06/21 09:16:04;;;;;;;5.15;1.52;;;;;;;22.24;36.19;100318.34;4116825;28;20137;-71
2022/06/21 09:18:24;;;;;;;2.58;1.25;;;;;;;22.17;35.71;100311.53;4116800;28;20150;-71
2022/06/21 09:20:39;;;;;;;3.05;1.33;;;;;;;22.23;36.26;100321.88;4127503;28;20050;-72
2022/06/21 09:23:05;;;;;;;4.22;1.27;;;;;;;22.45;37.02;100315.84;4132600;28;20046;-72
2022/06/21 09:25:17;;;;;;;3.90;1.50;;;;;;;22.71;35.41;100314.00;4132857;28;20046;-72
2022/06/21 09:27:26;;;;;;;4.20;1.50;;;;;;;22.75;34.62;100312.94;4133106;28;20125;-72
2022/06/21 09:29:35;;;;;;;4.45;1.20;;;;;;;22.70;34.83;100317.56;4133877;28;20129;-72
2022/06/21 09:31:50;;;;;;;2.60;1.30;;;;;;;22.88;35.43;100314.19;4133700;28;20046;-72
2022/06/21 09:33:57;;;;;;;5.20;1.73;;;;;;;22.87;36.10;100317.75;4133784;28;20046;-72
2022/06/21 09:36:08;;;;;;;3.47;1.38;;;;;;;22.82;35.93;100311.75;4133878;28;20501;-71
2022/06/21 09:38:23;;;;;;;6.22;2.03;;;;;;;22.87;35.90;100303.63;4132848;28;20050;-72
2022/06/21 09:40:31;;;;;;;5.15;1.70;;;;;;;22.90;36.07;100303.53;4127033;28;20125;-72
2022/06/21 09:42:58;;;;;;;3.03;1.48;;;;;;;22.87;36.11;100304.50;4133349;28;20061;-71
2022/06/21 09:45:13;;;;;;;2.78;1.30;;;;;;;22.91;35.05;100303.47;4116442;28;20492;-72
2022/06/21 09:47:23;;;;;;;7.40;1.67;;;;;;;22.86;35.97;100300.13;4133619;28;20133;-71
2022/06/21 09:49:39;;;;;;;4.38;1.83;;;;;;;22.86;35.52;100308.06;4132912;28;20034;-72
2022/06/21 09:51:48;;;;;;;4.68;1.60;;;;;;;22.82;34.88;100294.09;4133143;28;20050;-72
2022/06/21 09:54:03;;;;;;;5.43;1.95;;;;;;;22.92;35.61;100294.56;4137495;28;20405;-71
2022/06/21 09:56:19;;;;;;;3.88;1.55;;;;;;;22.90;35.56;100301.75;4140337;28;20533;-72
2022/06/21 09:58:28;;;;;;;4.85;1.38;;;;;;;22.75;36.62;100299.66;4138560;28;20045;-72
2022/06/21 10:00:41;;;;;;;6.00;1.70;;;;;;;22.60;36.14;100304.63;4133380;28;20133;-72
2022/06/21 10:03:00;;;;;;;6.07;1.80;;;;;;;22.84;36.24;100302.00;4136760;28;20121;-72
2022/06/21 10:05:15;;;;;;;6.60;1.75;;;;;;;22.87;35.03;100301.88;4133350;28;20046;-72
2022/06/21 10:07:29;;;;;;;2.92;1.20;;;;;;;22.92;35.82;100299.88;4116307;28;20146;-72
2022/06/21 10:09:45;;;;;;;2.35;1.08;;;;;;;23.13;34.74;100302.63;4116209;28;20533;-72
2022/06/21 10:11:58;;;;;;;2.90;1.30;;;;;;;23.18;35.28;100300.66;4132007;28;20057;-71
2022/06/21 10:14:19;;;;;;;3.97;1.60;;;;;;;23.48;35.52;100302.94;4133096;28;20543;-72